sensor_id;sensor_type;location;lat;lon;timestamp;P1;durP1;ratioP1;P2;durP2;ratioP2
1811;SDS011;904;47.814;11.134;2023-07-24T00:01:33;9.67;;;6.10;;
1811;SDS011;904;47.814;11.134;2023-07-24T00:04:00;9.00;;;6.17;;
1811;SDS011;904;47.814;11.134;2023-07-24T00:06:27;12.57;;;6.80;;
1811;SDS011;904;47.814;11.134;2023-07-24T00:08:53;10.53;;;6.93;;
1811;SDS011;904;47.814;11.134;2023-07-24T00:11:20;12.17;;;6.93;;
1811;SDS011;904;47.814;11.134;2023-07-24T00:13:47;10.30;;;6.97;;
1811;SDS011;904;47.814;11.134;2023-07-24T00:16:15;9.97;;;6.17;;
1811;SDS011;904;47.814;11.134;2023-07-24T00:18:42;9.70;;;6.47;;
1811;SDS011;904;47.814;11.134;2023-07-24T00:21:09;9.00;;;6.50;;
1811;SDS011;904;47.814;11.134;2023-07-24T00:23:38;10.33;;;6.20;;
1811;SDS011;904;47.814;11.134;2023-07-24T00:26:05;8.73;;;6.07;;
1811;SDS011;904;47.814;11.134;2023-07-24T00:28:32;10.07;;;6.53;;
1811;SDS011;904;47.814;11.134;2023-07-24T00:30:59;10.87;;;7.07;;
1811;SDS011;904;47.814;11.134;2023-07-24T00:33:27;10.37;;;6.90;;
1811;SDS011;904;47.814;11.134;2023-07-24T00:35:55;10.73;;;6.97;;
1811;SDS011;904;47.814;11.134;2023-07-24T00:38:23;9.10;;;6.43;;
1811;SDS011;904;47.814;11.134;2023-07-24T00:40:49;8.40;;;6.10;;
1811;SDS011;904;47.814;11.134;2023-07-24T00:43:16;8.07;;;5.93;;
1811;SDS011;904;47.814;11.134;2023-07-24T00:45:43;9.87;;;6.50;;
1811;SDS011;904;47.814;11.134;2023-07-24T00:48:13;9.13;;;5.77;;
1811;SDS011;904;47.814;11.134;2023-07-24T00:50:41;9.77;;;5.43;;
1811;SDS011;904;47.814;11.134;2023-07-24T00:53:08;10.70;;;6.10;;
1811;SDS011;904;47.814;11.134;2023-07-24T00:55:36;11.20;;;6.97;;
1811;SDS011;904;47.814;11.134;2023-07-24T00:58:03;8.83;;;6.37;;
1811;SDS011;904;47.814;11.134;2023-07-24T01:00:30;9.40;;;6.60;;
1811;SDS011;904;47.814;11.134;2023-07-24T01:02:58;15.43;;;7.43;;
1811;SDS011;904;47.814;11.134;2023-07-24T01:05:26;12.80;;;6.00;;
1811;SDS011;904;47.814;11.134;2023-07-24T01:07:54;8.67;;;5.83;;
1811;SDS011;904;47.814;11.134;2023-07-24T01:10:21;11.00;;;6.73;;
1811;SDS011;904;47.814;11.134;2023-07-24T01:12:50;9.50;;;6.60;;
1811;SDS011;904;47.814;11.134;2023-07-24T01:15:22;11.70;;;6.53;;
1811;SDS011;904;47.814;11.134;2023-07-24T01:17:56;15.13;;;7.50;;
1811;SDS011;904;47.814;11.134;2023-07-24T01:20:26;12.77;;;7.07;;
1811;SDS011;904;47.814;11.134;2023-07-24T01:23:08;10.30;;;6.60;;
1811;SDS011;904;47.814;11.134;2023-07-24T01:25:59;9.47;;;6.93;;
1811;SDS011;904;47.814;11.134;2023-07-24T01:28:27;10.00;;;7.73;;
1811;SDS011;904;47.814;11.134;2023-07-24T01:30:55;10.10;;;6.83;;
1811;SDS011;904;47.814;11.134;2023-07-24T01:33:22;8.97;;;7.03;;
1811;SDS011;904;47.814;11.134;2023-07-24T01:35:51;11.00;;;7.97;;
1811;SDS011;904;47.814;11.134;2023-07-24T01:38:21;7.60;;;5.93;;
1811;SDS011;904;47.814;11.134;2023-07-24T01:40:50;11.27;;;7.23;;
1811;SDS011;904;47.814;11.134;2023-07-24T01:43:19;10.30;;;6.37;;
1811;SDS011;904;47.814;11.134;2023-07-24T01:45:46;9.40;;;6.00;;
1811;SDS011;904;47.814;11.134;2023-07-24T01:48:13;11.40;;;7.40;;
1811;SDS011;904;47.814;11.134;2023-07-24T01:50:40;10.50;;;7.27;;
1811;SDS011;904;47.814;11.134;2023-07-24T01:53:07;11.43;;;7.10;;
1811;SDS011;904;47.814;11.134;2023-07-24T01:55:34;12.07;;;7.67;;
1811;SDS011;904;47.814;11.134;2023-07-24T01:58:01;9.83;;;7.00;;
1811;SDS011;904;47.814;11.134;2023-07-24T02:00:29;8.47;;;6.67;;
1811;SDS011;904;47.814;11.134;2023-07-24T02:02:56;13.30;;;6.60;;
1811;SDS011;904;47.814;11.134;2023-07-24T02:05:23;8.03;;;5.87;;
1811;SDS011;904;47.814;11.134;2023-07-24T02:07:50;9.13;;;6.13;;
1811;SDS011;904;47.814;11.134;2023-07-24T02:10:17;9.40;;;6.63;;
1811;SDS011;904;47.814;11.134;2023-07-24T02:12:44;9.23;;;6.67;;
1811;SDS011;904;47.814;11.134;2023-07-24T02:15:11;10.00;;;6.47;;
1811;SDS011;904;47.814;11.134;2023-07-24T02:17:39;7.83;;;5.50;;
1811;SDS011;904;47.814;11.134;2023-07-24T02:20:07;7.83;;;5.83;;
1811;SDS011;904;47.814;11.134;2023-07-24T02:22:34;10.90;;;6.70;;
1811;SDS011;904;47.814;11.134;2023-07-24T02:25:01;9.57;;;6.93;;
1811;SDS011;904;47.814;11.134;2023-07-24T02:27:29;12.27;;;7.00;;
1811;SDS011;904;47.814;11.134;2023-07-24T02:29:59;9.60;;;6.63;;
1811;SDS011;904;47.814;11.134;2023-07-24T02:32:26;7.87;;;6.83;;
1811;SDS011;904;47.814;11.134;2023-07-24T02:34:55;9.10;;;5.80;;
1811;SDS011;904;47.814;11.134;2023-07-24T02:37:21;10.30;;;7.17;;
1811;SDS011;904;47.814;11.134;2023-07-24T02:39:48;10.50;;;6.23;;
1811;SDS011;904;47.814;11.134;2023-07-24T02:42:15;9.87;;;7.20;;
1811;SDS011;904;47.814;11.134;2023-07-24T02:44:42;9.23;;;6.37;;
1811;SDS011;904;47.814;11.134;2023-07-24T02:47:09;14.10;;;7.40;;
1811;SDS011;904;47.814;11.134;2023-07-24T02:49:36;10.37;;;8.17;;
1811;SDS011;904;47.814;11.134;2023-07-24T02:52:05;12.33;;;8.40;;
1811;SDS011;904;47.814;11.134;2023-07-24T02:54:32;11.20;;;8.40;;
1811;SDS011;904;47.814;11.134;2023-07-24T02:56:58;11.63;;;9.20;;
1811;SDS011;904;47.814;11.134;2023-07-24T02:59:25;12.80;;;7.60;;
1811;SDS011;904;47.814;11.134;2023-07-24T03:01:52;11.93;;;9.13;;
1811;SDS011;904;47.814;11.134;2023-07-24T03:04:19;13.17;;;9.00;;
1811;SDS011;904;47.814;11.134;2023-07-24T03:06:46;12.13;;;8.33;;
1811;SDS011;904;47.814;11.134;2023-07-24T03:09:14;13.03;;;8.20;;
1811;SDS011;904;47.814;11.134;2023-07-24T03:11:41;12.50;;;8.73;;
1811;SDS011;904;47.814;11.134;2023-07-24T03:14:08;13.43;;;8.67;;
1811;SDS011;904;47.814;11.134;2023-07-24T03:16:35;14.63;;;9.27;;
1811;SDS011;904;47.814;11.134;2023-07-24T03:19:02;12.47;;;8.17;;
1811;SDS011;904;47.814;11.134;2023-07-24T03:21:29;12.63;;;8.70;;
1811;SDS011;904;47.814;11.134;2023-07-24T03:23:56;12.37;;;7.40;;
1811;SDS011;904;47.814;11.134;2023-07-24T03:26:24;14.07;;;8.40;;
1811;SDS011;904;47.814;11.134;2023-07-24T03:28:51;13.57;;;8.87;;
1811;SDS011;904;47.814;11.134;2023-07-24T03:31:18;11.07;;;7.53;;
1811;SDS011;904;47.814;11.134;2023-07-24T03:33:45;14.80;;;8.63;;
1811;SDS011;904;47.814;11.134;2023-07-24T03:36:12;12.93;;;8.83;;
1811;SDS011;904;47.814;11.134;2023-07-24T03:38:38;16.30;;;9.33;;
1811;SDS011;904;47.814;11.134;2023-07-24T03:41:05;15.30;;;9.63;;
1811;SDS011;904;47.814;11.134;2023-07-24T03:43:33;13.73;;;9.40;;
1811;SDS011;904;47.814;11.134;2023-07-24T03:46:00;12.07;;;8.40;;
1811;SDS011;904;47.814;11.134;2023-07-24T03:48:27;12.93;;;8.63;;
1811;SDS011;904;47.814;11.134;2023-07-24T03:50:57;13.13;;;8.93;;
1811;SDS011;904;47.814;11.134;2023-07-24T03:53:25;12.77;;;8.30;;
1811;SDS011;904;47.814;11.134;2023-07-24T03:55:52;15.23;;;8.97;;
1811;SDS011;904;47.814;11.134;2023-07-24T03:58:19;14.43;;;8.53;;
1811;SDS011;904;47.814;11.134;2023-07-24T04:00:47;11.73;;;7.43;;
1811;SDS011;904;47.814;11.134;2023-07-24T04:03:14;11.20;;;7.40;;
1811;SDS011;904;47.814;11.134;2023-07-24T04:05:41;11.20;;;7.50;;
1811;SDS011;904;47.814;11.134;2023-07-24T04:08:08;14.27;;;9.43;;
1811;SDS011;904;47.814;11.134;2023-07-24T04:10:35;12.60;;;8.67;;
1811;SDS011;904;47.814;11.134;2023-07-24T04:13:02;12.43;;;8.63;;
1811;SDS011;904;47.814;11.134;2023-07-24T04:15:29;13.20;;;8.87;;
1811;SDS011;904;47.814;11.134;2023-07-24T04:17:57;18.70;;;8.33;;
1811;SDS011;904;47.814;11.134;2023-07-24T04:20:24;13.23;;;8.50;;
1811;SDS011;904;47.814;11.134;2023-07-24T04:22:51;16.13;;;8.60;;
1811;SDS011;904;47.814;11.134;2023-07-24T04:25:18;11.20;;;8.40;;
1811;SDS011;904;47.814;11.134;2023-07-24T04:27:45;12.77;;;8.60;;
1811;SDS011;904;47.814;11.134;2023-07-24T04:30:12;14.07;;;8.17;;
1811;SDS011;904;47.814;11.134;2023-07-24T04:32:39;12.40;;;7.73;;
1811;SDS011;904;47.814;11.134;2023-07-24T04:35:07;11.40;;;8.67;;
1811;SDS011;904;47.814;11.134;2023-07-24T04:37:35;13.83;;;8.73;;
1811;SDS011;904;47.814;11.134;2023-07-24T04:40:01;14.03;;;8.10;;
1811;SDS011;904;47.814;11.134;2023-07-24T04:42:29;12.80;;;8.70;;
1811;SDS011;904;47.814;11.134;2023-07-24T04:44:56;10.57;;;8.30;;
1811;SDS011;904;47.814;11.134;2023-07-24T04:47:23;12.00;;;8.33;;
1811;SDS011;904;47.814;11.134;2023-07-24T04:49:50;11.53;;;7.50;;
1811;SDS011;904;47.814;11.134;2023-07-24T04:52:18;14.17;;;8.57;;
1811;SDS011;904;47.814;11.134;2023-07-24T04:54:45;16.13;;;9.57;;
1811;SDS011;904;47.814;11.134;2023-07-24T04:57:12;11.90;;;9.23;;
1811;SDS011;904;47.814;11.134;2023-07-24T04:59:38;12.20;;;8.90;;
1811;SDS011;904;47.814;11.134;2023-07-24T05:02:05;11.87;;;8.23;;
1811;SDS011;904;47.814;11.134;2023-07-24T05:04:32;14.03;;;9.33;;
1811;SDS011;904;47.814;11.134;2023-07-24T05:06:59;11.50;;;7.70;;
1811;SDS011;904;47.814;11.134;2023-07-24T05:09:27;14.70;;;7.60;;
1811;SDS011;904;47.814;11.134;2023-07-24T05:11:54;13.20;;;8.30;;
1811;SDS011;904;47.814;11.134;2023-07-24T05:14:21;12.40;;;9.03;;
1811;SDS011;904;47.814;11.134;2023-07-24T05:16:48;14.27;;;9.83;;
1811;SDS011;904;47.814;11.134;2023-07-24T05:19:15;13.47;;;9.07;;
1811;SDS011;904;47.814;11.134;2023-07-24T05:21:42;12.77;;;8.80;;
1811;SDS011;904;47.814;11.134;2023-07-24T05:24:08;11.73;;;8.20;;
1811;SDS011;904;47.814;11.134;2023-07-24T05:26:37;12.67;;;9.73;;
1811;SDS011;904;47.814;11.134;2023-07-24T05:29:03;20.50;;;9.70;;
1811;SDS011;904;47.814;11.134;2023-07-24T05:31:30;13.90;;;9.67;;
1811;SDS011;904;47.814;11.134;2023-07-24T05:33:59;12.13;;;8.50;;
1811;SDS011;904;47.814;11.134;2023-07-24T05:36:26;12.47;;;8.60;;
1811;SDS011;904;47.814;11.134;2023-07-24T05:38:53;10.90;;;8.10;;
1811;SDS011;904;47.814;11.134;2023-07-24T05:41:21;14.80;;;9.00;;
1811;SDS011;904;47.814;11.134;2023-07-24T05:43:49;11.97;;;8.43;;
1811;SDS011;904;47.814;11.134;2023-07-24T05:46:16;15.43;;;8.80;;
1811;SDS011;904;47.814;11.134;2023-07-24T05:48:43;16.67;;;9.63;;
1811;SDS011;904;47.814;11.134;2023-07-24T05:51:10;13.50;;;8.60;;
1811;SDS011;904;47.814;11.134;2023-07-24T05:53:37;17.50;;;9.33;;
1811;SDS011;904;47.814;11.134;2023-07-24T05:56:03;13.83;;;9.07;;
1811;SDS011;904;47.814;11.134;2023-07-24T05:58:30;17.20;;;8.83;;
1811;SDS011;904;47.814;11.134;2023-07-24T06:00:59;15.67;;;9.10;;
1811;SDS011;904;47.814;11.134;2023-07-24T06:03:26;13.70;;;9.50;;
1811;SDS011;904;47.814;11.134;2023-07-24T06:05:53;15.20;;;8.67;;
1811;SDS011;904;47.814;11.134;2023-07-24T06:08:20;12.70;;;9.27;;
1811;SDS011;904;47.814;11.134;2023-07-24T06:10:48;16.23;;;9.10;;
1811;SDS011;904;47.814;11.134;2023-07-24T06:13:15;13.73;;;8.43;;
1811;SDS011;904;47.814;11.134;2023-07-24T06:15:42;15.00;;;9.17;;
1811;SDS011;904;47.814;11.134;2023-07-24T06:18:11;12.33;;;8.70;;
1811;SDS011;904;47.814;11.134;2023-07-24T06:20:38;16.23;;;9.80;;
1811;SDS011;904;47.814;11.134;2023-07-24T06:23:04;13.80;;;9.17;;
1811;SDS011;904;47.814;11.134;2023-07-24T06:25:31;14.90;;;9.03;;
1811;SDS011;904;47.814;11.134;2023-07-24T06:27:58;13.37;;;8.53;;
1811;SDS011;904;47.814;11.134;2023-07-24T06:30:25;14.47;;;8.80;;
1811;SDS011;904;47.814;11.134;2023-07-24T06:32:52;15.77;;;8.93;;
1811;SDS011;904;47.814;11.134;2023-07-24T06:35:20;15.30;;;9.10;;
1811;SDS011;904;47.814;11.134;2023-07-24T06:37:47;14.53;;;9.00;;
1811;SDS011;904;47.814;11.134;2023-07-24T06:40:14;15.50;;;10.10;;
1811;SDS011;904;47.814;11.134;2023-07-24T06:42:41;11.47;;;8.00;;
1811;SDS011;904;47.814;11.134;2023-07-24T06:45:08;11.90;;;8.60;;
1811;SDS011;904;47.814;11.134;2023-07-24T06:47:35;16.30;;;8.77;;
1811;SDS011;904;47.814;11.134;2023-07-24T06:50:02;14.03;;;8.80;;
1811;SDS011;904;47.814;11.134;2023-07-24T06:52:31;14.20;;;8.57;;
1811;SDS011;904;47.814;11.134;2023-07-24T06:54:58;13.30;;;8.57;;
1811;SDS011;904;47.814;11.134;2023-07-24T06:57:25;17.03;;;8.57;;
1811;SDS011;904;47.814;11.134;2023-07-24T06:59:51;14.97;;;8.87;;
1811;SDS011;904;47.814;11.134;2023-07-24T07:02:18;15.33;;;9.27;;
1811;SDS011;904;47.814;11.134;2023-07-24T07:04:45;13.90;;;9.20;;
1811;SDS011;904;47.814;11.134;2023-07-24T07:07:12;11.87;;;7.73;;
1811;SDS011;904;47.814;11.134;2023-07-24T07:09:40;12.23;;;8.60;;
1811;SDS011;904;47.814;11.134;2023-07-24T07:12:07;16.10;;;8.13;;
1811;SDS011;904;47.814;11.134;2023-07-24T07:14:34;11.73;;;7.90;;
1811;SDS011;904;47.814;11.134;2023-07-24T07:17:01;12.83;;;9.07;;
1811;SDS011;904;47.814;11.134;2023-07-24T07:19:28;13.17;;;8.20;;
1811;SDS011;904;47.814;11.134;2023-07-24T07:21:55;11.03;;;8.10;;
1811;SDS011;904;47.814;11.134;2023-07-24T07:24:22;11.93;;;8.00;;
1811;SDS011;904;47.814;11.134;2023-07-24T07:26:50;12.23;;;6.93;;
1811;SDS011;904;47.814;11.134;2023-07-24T07:29:17;10.73;;;6.87;;
1811;SDS011;904;47.814;11.134;2023-07-24T07:31:44;11.17;;;7.60;;
1811;SDS011;904;47.814;11.134;2023-07-24T07:34:11;12.23;;;6.43;;
1811;SDS011;904;47.814;11.134;2023-07-24T07:36:37;8.90;;;5.70;;
1811;SDS011;904;47.814;11.134;2023-07-24T07:39:04;8.20;;;6.40;;
1811;SDS011;904;47.814;11.134;2023-07-24T07:41:31;7.30;;;5.50;;
1811;SDS011;904;47.814;11.134;2023-07-24T07:43:59;7.40;;;4.57;;
1811;SDS011;904;47.814;11.134;2023-07-24T07:46:26;7.37;;;4.67;;
1811;SDS011;904;47.814;11.134;2023-07-24T07:48:53;7.90;;;5.33;;
1811;SDS011;904;47.814;11.134;2023-07-24T07:51:20;7.17;;;4.73;;
1811;SDS011;904;47.814;11.134;2023-07-24T07:53:49;8.40;;;4.10;;
1811;SDS011;904;47.814;11.134;2023-07-24T07:56:16;5.77;;;4.20;;
1811;SDS011;904;47.814;11.134;2023-07-24T07:58:43;7.03;;;3.93;;
1811;SDS011;904;47.814;11.134;2023-07-24T08:01:11;4.93;;;3.00;;
1811;SDS011;904;47.814;11.134;2023-07-24T08:03:38;5.20;;;2.90;;
1811;SDS011;904;47.814;11.134;2023-07-24T08:06:05;6.23;;;2.87;;
1811;SDS011;904;47.814;11.134;2023-07-24T08:08:32;6.60;;;2.97;;
1811;SDS011;904;47.814;11.134;2023-07-24T08:11:03;6.10;;;3.20;;
1811;SDS011;904;47.814;11.134;2023-07-24T08:13:30;6.00;;;3.10;;
1811;SDS011;904;47.814;11.134;2023-07-24T08:15:57;4.50;;;2.60;;
1811;SDS011;904;47.814;11.134;2023-07-24T08:18:25;4.83;;;3.00;;
1811;SDS011;904;47.814;11.134;2023-07-24T08:20:52;5.27;;;2.77;;
1811;SDS011;904;47.814;11.134;2023-07-24T08:23:19;8.27;;;2.70;;
1811;SDS011;904;47.814;11.134;2023-07-24T08:25:52;5.50;;;3.20;;
1811;SDS011;904;47.814;11.134;2023-07-24T08:28:19;3.87;;;2.20;;
1811;SDS011;904;47.814;11.134;2023-07-24T08:30:46;4.10;;;2.67;;
1811;SDS011;904;47.814;11.134;2023-07-24T08:33:22;3.90;;;2.57;;
1811;SDS011;904;47.814;11.134;2023-07-24T08:35:58;5.20;;;3.60;;
1811;SDS011;904;47.814;11.134;2023-07-24T08:38:29;7.40;;;3.70;;
1811;SDS011;904;47.814;11.134;2023-07-24T08:41:02;11.83;;;3.43;;
1811;SDS011;904;47.814;11.134;2023-07-24T08:43:29;6.83;;;4.70;;
1811;SDS011;904;47.814;11.134;2023-07-24T08:45:57;7.43;;;5.67;;
1811;SDS011;904;47.814;11.134;2023-07-24T08:48:25;9.10;;;5.90;;
1811;SDS011;904;47.814;11.134;2023-07-24T08:50:55;7.93;;;5.20;;
1811;SDS011;904;47.814;11.134;2023-07-24T08:53:25;6.37;;;4.93;;
1811;SDS011;904;47.814;11.134;2023-07-24T08:55:52;10.87;;;5.30;;
1811;SDS011;904;47.814;11.134;2023-07-24T08:58:20;7.30;;;4.67;;
1811;SDS011;904;47.814;11.134;2023-07-24T09:00:47;6.87;;;4.40;;
1811;SDS011;904;47.814;11.134;2023-07-24T09:03:16;7.90;;;5.37;;
1811;SDS011;904;47.814;11.134;2023-07-24T09:05:43;11.60;;;5.67;;
1811;SDS011;904;47.814;11.134;2023-07-24T09:08:10;7.70;;;4.77;;
1811;SDS011;904;47.814;11.134;2023-07-24T09:10:38;6.70;;;3.90;;
1811;SDS011;904;47.814;11.134;2023-07-24T09:13:05;7.00;;;4.70;;
1811;SDS011;904;47.814;11.134;2023-07-24T09:15:39;8.03;;;4.43;;
1811;SDS011;904;47.814;11.134;2023-07-24T09:18:06;8.63;;;4.60;;
1811;SDS011;904;47.814;11.134;2023-07-24T09:20:37;7.77;;;3.83;;
1811;SDS011;904;47.814;11.134;2023-07-24T09:23:06;5.47;;;4.00;;
1811;SDS011;904;47.814;11.134;2023-07-24T09:25:34;8.70;;;5.00;;
1811;SDS011;904;47.814;11.134;2023-07-24T09:28:09;7.23;;;5.30;;
1811;SDS011;904;47.814;11.134;2023-07-24T09:30:37;7.90;;;4.20;;
1811;SDS011;904;47.814;11.134;2023-07-24T09:33:04;8.17;;;5.33;;
1811;SDS011;904;47.814;11.134;2023-07-24T09:35:31;6.60;;;4.10;;
1811;SDS011;904;47.814;11.134;2023-07-24T09:38:02;6.43;;;4.27;;
1811;SDS011;904;47.814;11.134;2023-07-24T09:40:36;7.83;;;4.17;;
1811;SDS011;904;47.814;11.134;2023-07-24T09:43:15;6.70;;;3.93;;
1811;SDS011;904;47.814;11.134;2023-07-24T09:45:43;7.60;;;5.00;;
1811;SDS011;904;47.814;11.134;2023-07-24T09:48:11;6.00;;;3.70;;
1811;SDS011;904;47.814;11.134;2023-07-24T09:50:40;9.00;;;5.43;;
1811;SDS011;904;47.814;11.134;2023-07-24T09:53:10;7.03;;;4.00;;
1811;SDS011;904;47.814;11.134;2023-07-24T09:55:43;6.30;;;4.47;;
1811;SDS011;904;47.814;11.134;2023-07-24T09:58:18;10.30;;;5.33;;
1811;SDS011;904;47.814;11.134;2023-07-24T10:00:48;6.43;;;3.93;;
1811;SDS011;904;47.814;11.134;2023-07-24T10:03:16;9.97;;;4.60;;
1811;SDS011;904;47.814;11.134;2023-07-24T10:05:43;8.37;;;5.30;;
1811;SDS011;904;47.814;11.134;2023-07-24T10:08:10;7.40;;;4.67;;
1811;SDS011;904;47.814;11.134;2023-07-24T10:10:38;5.93;;;3.87;;
1811;SDS011;904;47.814;11.134;2023-07-24T10:13:05;7.40;;;4.80;;
1811;SDS011;904;47.814;11.134;2023-07-24T10:15:37;6.77;;;4.20;;
1811;SDS011;904;47.814;11.134;2023-07-24T10:18:05;5.27;;;3.87;;
1811;SDS011;904;47.814;11.134;2023-07-24T10:20:33;7.00;;;4.13;;
1811;SDS011;904;47.814;11.134;2023-07-24T10:23:01;9.63;;;4.70;;
1811;SDS011;904;47.814;11.134;2023-07-24T10:25:28;8.50;;;4.50;;
1811;SDS011;904;47.814;11.134;2023-07-24T10:28:00;6.47;;;4.50;;
1811;SDS011;904;47.814;11.134;2023-07-24T10:30:32;8.47;;;5.50;;
1811;SDS011;904;47.814;11.134;2023-07-24T10:33:08;6.83;;;4.90;;
1811;SDS011;904;47.814;11.134;2023-07-24T10:35:36;7.73;;;4.80;;
1811;SDS011;904;47.814;11.134;2023-07-24T10:38:07;8.40;;;5.10;;
1811;SDS011;904;47.814;11.134;2023-07-24T10:40:34;6.80;;;4.67;;
1811;SDS011;904;47.814;11.134;2023-07-24T10:43:04;7.47;;;4.97;;
1811;SDS011;904;47.814;11.134;2023-07-24T10:45:38;8.97;;;5.70;;
1811;SDS011;904;47.814;11.134;2023-07-24T10:48:13;8.47;;;6.73;;
1811;SDS011;904;47.814;11.134;2023-07-24T10:50:41;8.70;;;5.33;;
1811;SDS011;904;47.814;11.134;2023-07-24T10:53:09;7.67;;;5.17;;
1811;SDS011;904;47.814;11.134;2023-07-24T10:55:36;9.83;;;6.40;;
1811;SDS011;904;47.814;11.134;2023-07-24T10:58:04;8.23;;;5.90;;
1811;SDS011;904;47.814;11.134;2023-07-24T11:00:31;8.03;;;5.80;;
1811;SDS011;904;47.814;11.134;2023-07-24T11:02:58;8.13;;;5.33;;
1811;SDS011;904;47.814;11.134;2023-07-24T11:05:27;7.03;;;5.43;;
1811;SDS011;904;47.814;11.134;2023-07-24T11:07:54;10.30;;;5.70;;
1811;SDS011;904;47.814;11.134;2023-07-24T11:10:21;9.93;;;6.53;;
1811;SDS011;904;47.814;11.134;2023-07-24T11:12:49;8.67;;;5.87;;
1811;SDS011;904;47.814;11.134;2023-07-24T11:15:22;9.03;;;6.20;;
1811;SDS011;904;47.814;11.134;2023-07-24T11:17:50;7.53;;;5.23;;
1811;SDS011;904;47.814;11.134;2023-07-24T11:20:17;7.43;;;5.77;;
1811;SDS011;904;47.814;11.134;2023-07-24T11:22:46;9.33;;;6.20;;
1811;SDS011;904;47.814;11.134;2023-07-24T11:25:13;8.10;;;6.43;;
1811;SDS011;904;47.814;11.134;2023-07-24T11:27:41;9.43;;;5.87;;
1811;SDS011;904;47.814;11.134;2023-07-24T11:30:09;6.70;;;5.70;;
1811;SDS011;904;47.814;11.134;2023-07-24T11:32:38;8.13;;;5.70;;
1811;SDS011;904;47.814;11.134;2023-07-24T11:35:05;9.50;;;6.50;;
1811;SDS011;904;47.814;11.134;2023-07-24T11:37:34;7.60;;;5.70;;
1811;SDS011;904;47.814;11.134;2023-07-24T11:40:03;8.73;;;5.67;;
1811;SDS011;904;47.814;11.134;2023-07-24T11:42:37;8.67;;;6.57;;
1811;SDS011;904;47.814;11.134;2023-07-24T11:45:05;7.77;;;5.80;;
1811;SDS011;904;47.814;11.134;2023-07-24T11:47:40;9.60;;;6.43;;
1811;SDS011;904;47.814;11.134;2023-07-24T11:50:09;9.97;;;6.17;;
1811;SDS011;904;47.814;11.134;2023-07-24T11:52:39;8.10;;;6.10;;
1811;SDS011;904;47.814;11.134;2023-07-24T11:55:10;8.07;;;5.43;;
1811;SDS011;904;47.814;11.134;2023-07-24T11:57:37;8.80;;;5.83;;
1811;SDS011;904;47.814;11.134;2023-07-24T12:00:04;7.63;;;5.73;;
1811;SDS011;904;47.814;11.134;2023-07-24T12:02:35;9.10;;;5.77;;
1811;SDS011;904;47.814;11.134;2023-07-24T12:05:01;8.33;;;6.67;;
1811;SDS011;904;47.814;11.134;2023-07-24T12:07:32;7.47;;;5.17;;
1811;SDS011;904;47.814;11.134;2023-07-24T12:10:00;8.03;;;5.90;;
1811;SDS011;904;47.814;11.134;2023-07-24T12:12:39;8.27;;;6.27;;
1811;SDS011;904;47.814;11.134;2023-07-24T12:15:07;13.80;;;6.80;;
1811;SDS011;904;47.814;11.134;2023-07-24T12:17:35;8.20;;;5.97;;
1811;SDS011;904;47.814;11.134;2023-07-24T12:20:02;10.07;;;7.63;;
1811;SDS011;904;47.814;11.134;2023-07-24T12:22:31;9.90;;;6.90;;
1811;SDS011;904;47.814;11.134;2023-07-24T12:24:58;14.27;;;9.10;;
1811;SDS011;904;47.814;11.134;2023-07-24T12:27:24;9.87;;;6.73;;
1811;SDS011;904;47.814;11.134;2023-07-24T12:29:53;11.67;;;6.57;;
1811;SDS011;904;47.814;11.134;2023-07-24T12:32:20;10.43;;;5.60;;
1811;SDS011;904;47.814;11.134;2023-07-24T12:34:48;8.27;;;5.87;;
1811;SDS011;904;47.814;11.134;2023-07-24T12:37:16;8.87;;;4.93;;
1811;SDS011;904;47.814;11.134;2023-07-24T12:39:43;6.20;;;3.93;;
1811;SDS011;904;47.814;11.134;2023-07-24T12:42:10;9.47;;;4.70;;
1811;SDS011;904;47.814;11.134;2023-07-24T12:44:37;10.13;;;5.33;;
1811;SDS011;904;47.814;11.134;2023-07-24T12:47:06;16.50;;;4.90;;
1811;SDS011;904;47.814;11.134;2023-07-24T12:49:33;8.27;;;4.80;;
1811;SDS011;904;47.814;11.134;2023-07-24T12:52:00;10.20;;;4.87;;
1811;SDS011;904;47.814;11.134;2023-07-24T12:54:27;6.40;;;4.27;;
1811;SDS011;904;47.814;11.134;2023-07-24T12:56:54;7.97;;;4.60;;
1811;SDS011;904;47.814;11.134;2023-07-24T12:59:20;8.17;;;5.10;;
1811;SDS011;904;47.814;11.134;2023-07-24T13:01:47;7.13;;;4.60;;
1811;SDS011;904;47.814;11.134;2023-07-24T13:04:16;8.00;;;4.07;;
1811;SDS011;904;47.814;11.134;2023-07-24T13:06:42;10.50;;;4.27;;
1811;SDS011;904;47.814;11.134;2023-07-24T13:09:10;6.83;;;3.53;;
1811;SDS011;904;47.814;11.134;2023-07-24T13:11:37;6.00;;;3.97;;
1811;SDS011;904;47.814;11.134;2023-07-24T13:14:03;4.90;;;3.20;;
1811;SDS011;904;47.814;11.134;2023-07-24T13:16:30;5.77;;;3.20;;
1811;SDS011;904;47.814;11.134;2023-07-24T13:18:57;4.97;;;2.80;;
1811;SDS011;904;47.814;11.134;2023-07-24T13:21:26;6.60;;;3.83;;
1811;SDS011;904;47.814;11.134;2023-07-24T13:23:53;5.60;;;3.33;;
1811;SDS011;904;47.814;11.134;2023-07-24T13:26:21;4.13;;;3.07;;
1811;SDS011;904;47.814;11.134;2023-07-24T13:28:47;5.23;;;3.17;;
1811;SDS011;904;47.814;11.134;2023-07-24T13:31:15;7.03;;;2.90;;
1811;SDS011;904;47.814;11.134;2023-07-24T13:33:44;6.90;;;3.10;;
1811;SDS011;904;47.814;11.134;2023-07-24T13:36:11;5.10;;;3.20;;
1811;SDS011;904;47.814;11.134;2023-07-24T13:38:40;4.80;;;3.30;;
1811;SDS011;904;47.814;11.134;2023-07-24T13:41:07;5.13;;;3.30;;
1811;SDS011;904;47.814;11.134;2023-07-24T13:43:34;5.50;;;2.80;;
1811;SDS011;904;47.814;11.134;2023-07-24T13:46:01;5.53;;;3.20;;
1811;SDS011;904;47.814;11.134;2023-07-24T13:48:29;4.70;;;3.03;;
1811;SDS011;904;47.814;11.134;2023-07-24T13:50:56;6.13;;;2.90;;
1811;SDS011;904;47.814;11.134;2023-07-24T13:53:23;5.60;;;3.33;;
1811;SDS011;904;47.814;11.134;2023-07-24T13:55:52;5.57;;;3.43;;
1811;SDS011;904;47.814;11.134;2023-07-24T13:58:19;7.53;;;3.53;;
1811;SDS011;904;47.814;11.134;2023-07-24T14:00:46;5.07;;;2.80;;
1811;SDS011;904;47.814;11.134;2023-07-24T14:03:13;5.87;;;3.40;;
1811;SDS011;904;47.814;11.134;2023-07-24T14:05:39;4.40;;;2.77;;
1811;SDS011;904;47.814;11.134;2023-07-24T14:08:06;5.50;;;3.30;;
1811;SDS011;904;47.814;11.134;2023-07-24T14:10:34;5.53;;;3.83;;
1811;SDS011;904;47.814;11.134;2023-07-24T14:13:02;6.63;;;3.70;;
1811;SDS011;904;47.814;11.134;2023-07-24T14:15:29;5.00;;;2.93;;
1811;SDS011;904;47.814;11.134;2023-07-24T14:17:56;5.33;;;2.67;;
1811;SDS011;904;47.814;11.134;2023-07-24T14:20:23;5.37;;;2.27;;
1811;SDS011;904;47.814;11.134;2023-07-24T14:22:50;5.30;;;3.23;;
1811;SDS011;904;47.814;11.134;2023-07-24T14:25:17;4.43;;;2.23;;
1811;SDS011;904;47.814;11.134;2023-07-24T14:27:43;3.50;;;1.83;;
1811;SDS011;904;47.814;11.134;2023-07-24T14:30:12;4.73;;;2.47;;
1811;SDS011;904;47.814;11.134;2023-07-24T14:32:39;2.90;;;1.57;;
1811;SDS011;904;47.814;11.134;2023-07-24T14:35:06;4.00;;;2.57;;
1811;SDS011;904;47.814;11.134;2023-07-24T14:37:33;6.50;;;2.87;;
1811;SDS011;904;47.814;11.134;2023-07-24T14:40:00;4.30;;;2.53;;
1811;SDS011;904;47.814;11.134;2023-07-24T14:42:27;4.13;;;2.40;;
1811;SDS011;904;47.814;11.134;2023-07-24T14:44:54;5.43;;;2.60;;
1811;SDS011;904;47.814;11.134;2023-07-24T14:47:28;5.00;;;2.97;;
1811;SDS011;904;47.814;11.134;2023-07-24T14:49:55;5.30;;;2.57;;
1811;SDS011;904;47.814;11.134;2023-07-24T14:52:22;4.37;;;2.50;;
1811;SDS011;904;47.814;11.134;2023-07-24T14:54:49;8.37;;;2.80;;
1811;SDS011;904;47.814;11.134;2023-07-24T14:57:16;4.20;;;2.73;;
1811;SDS011;904;47.814;11.134;2023-07-24T14:59:43;4.43;;;3.03;;
1811;SDS011;904;47.814;11.134;2023-07-24T15:02:10;5.37;;;3.13;;
1811;SDS011;904;47.814;11.134;2023-07-24T15:04:38;4.10;;;2.73;;
1811;SDS011;904;47.814;11.134;2023-07-24T15:07:05;4.00;;;2.70;;
1811;SDS011;904;47.814;11.134;2023-07-24T15:09:32;5.37;;;2.83;;
1811;SDS011;904;47.814;11.134;2023-07-24T15:11:59;4.83;;;3.40;;
1811;SDS011;904;47.814;11.134;2023-07-24T15:14:26;6.00;;;3.13;;